< < Back
Terminal Aerodrome Forecast


Current Version              Previous Versions:   1  2  3  4  5  6  7  8  9  

Terminal Aerodrome Forecast

086
FTUS42 KJAX 061531 CCA
TAFGNV
TAF COR
KGNV 061531Z 0616/0712 04012KT P6SM BKN050 OVC070
     FM061700 02012G18KT P6SM VCSH OVC035
     FM062300 36014G21KT 5SM -RA BR OVC020
     FM070500 34015G23KT P6SM VCSH OVC008=

Latest METAR

747
SAUS70 KWBC 061500 RRM
MTRGNV
METAR KGNV 061453Z 04012KT 10SM BKN055 OVC070 12/05 A3027 RMK AO2 SLP253
T01170050 53010


USA.gov is the U.S. government's official web portal to all federal, state and local government web resources and services.